Time;durP1;ratioP1;P1;durP2;ratioP2;P2;SDS_P1;SDS_P2;PMS_P1;PMS_P2;Temp;Humidity;BMP_temperature;BMP_pressure;BME280_temperature;BME280_humidity;BME280_pressure;Samples;Min_cycle;Max_cycle;Signal;HPM_P1;HPM_P2
2023/11/26 00:01:25;;;;;;;;;;;;;;;0.62;87.04;100163.13;5056819;28;19963;-56
2023/11/26 00:03:52;;;;;;;;;;;;;;;0.63;86.78;100163.09;5054985;28;19933;-56
2023/11/26 00:06:19;;;;;;;;;;;;;;;0.56;86.17;100168.47;5061883;28;19960;-60
2023/11/26 00:08:46;;;;;;;;;;;;;;;0.63;85.96;100167.41;5054330;28;19925;-59
2023/11/26 00:11:13;;;;;;;;;;;;;;;0.62;84.76;100171.72;5046751;28;19971;-52
2023/11/26 00:13:40;;;;;;;;;;;;;;;0.63;85.25;100170.88;5055778;28;19964;-54
2023/11/26 00:16:07;;;;;;;;;;;;;;;0.70;nan;100163.78;5057262;28;19968;-53
2023/11/26 00:18:35;;;;;;;;;;;;;;;0.66;85.88;100173.34;5057304;28;19929;-55
2023/11/26 00:21:03;;;;;;;;;;;;;;;0.66;86.26;100170.78;5052359;28;19928;-55
2023/11/26 00:23:30;;;;;;;;;;;;;;;0.66;86.03;100172.50;5057471;28;20075;-55
2023/11/26 00:25:57;;;;;;;;;;;;;;;0.68;85.96;100174.19;5051630;28;19991;-54
2023/11/26 00:28:24;;;;;;;;;;;;;;;0.67;85.43;100182.81;5046899;28;20019;-52
2023/11/26 00:30:51;;;;;;;;;;;;;;;0.54;84.96;100183.19;5051045;28;19931;-55
2023/11/26 00:33:19;;;;;;;;;;;;;;;0.41;85.21;100180.06;5055105;28;19972;-54
2023/11/26 00:35:46;;;;;;;;;;;;;;;0.48;85.49;100191.94;5046891;28;19991;-54
2023/11/26 00:38:13;;;;;;;;;;;;;;;0.37;85.33;100194.81;5048202;28;19935;-59
2023/11/26 00:40:40;;;;;;;;;;;;;;;0.33;86.28;100197.50;5049068;28;19932;-57
2023/11/26 00:43:08;;;;;;;;;;;;;;;0.40;85.92;100192.13;5045525;28;19968;-53
2023/11/26 00:45:37;;;;;;;;;;;;;;;0.47;86.15;100200.63;5043822;28;19925;-54
2023/11/26 00:48:04;;;;;;;;;;;;;;;0.53;85.24;100209.97;5038998;28;20033;-53
2023/11/26 00:50:31;;;;;;;;;;;;;;;0.46;84.26;100211.88;5050729;28;20007;-53
2023/11/26 00:52:59;;;;;;;;;;;;;;;0.25;84.58;100223.56;5052518;28;19968;-51
2023/11/26 00:55:26;;;;;;;;;;;;;;;0.39;84.30;100224.09;5048398;28;19972;-54
2023/11/26 00:57:53;;;;;;;;;;;;;;;0.38;83.73;100226.72;5048073;28;20020;-56
2023/11/26 01:00:20;;;;;;;;;;;;;;;0.42;84.26;100228.38;5041717;28;20003;-57
2023/11/26 01:02:47;;;;;;;;;;;;;;;0.41;83.55;100232.69;5042903;28;19960;-58
2023/11/26 01:05:14;;;;;;;;;;;;;;;0.47;84.31;100229.09;5049961;28;19980;-53
2023/11/26 01:07:41;;;;;;;;;;;;;;;0.43;82.98;100230.06;5051858;28;19925;-54
2023/11/26 01:10:09;;;;;;;;;;;;;;;0.35;82.51;100230.22;5047934;28;19979;-51
2023/11/26 01:12:36;;;;;;;;;;;;;;;0.32;81.46;100232.91;5046815;28;19983;-55
2023/11/26 01:15:06;;;;;;;;;;;;;;;0.37;81.34;100238.84;5047803;28;19929;-54
2023/11/26 01:17:34;;;;;;;;;;;;;;;0.42;81.61;100238.72;5050667;28;20019;-58
2023/11/26 01:20:05;;;;;;;;;;;;;;;0.40;81.39;100238.75;5048984;28;20429;-57
2023/11/26 01:22:33;;;;;;;;;;;;;;;0.47;81.46;100239.47;5042761;28;19964;-57
2023/11/26 01:25:00;;;;;;;;;;;;;;;0.49;80.71;100238.53;5050338;28;20012;-54
2023/11/26 01:27:27;;;;;;;;;;;;;;;0.56;80.75;100239.25;5036707;28;19979;-54
2023/11/26 01:29:53;;;;;;;;;;;;;;;0.55;80.98;100244.47;5045862;28;19968;-55
2023/11/26 01:32:20;;;;;;;;;;;;;;;0.55;80.46;100241.88;5055761;28;20403;-55
2023/11/26 01:34:48;;;;;;;;;;;;;;;0.48;79.88;100233.38;5033304;28;19933;-55
2023/11/26 01:37:15;;;;;;;;;;;;;;;0.40;79.38;100240.47;5042839;28;19929;-54
2023/11/26 01:39:42;;;;;;;;;;;;;;;0.29;79.33;100242.47;5043443;28;19925;-55
2023/11/26 01:42:09;;;;;;;;;;;;;;;0.38;80.16;100234.50;5042307;28;20433;-55
2023/11/26 01:44:36;;;;;;;;;;;;;;;0.27;78.90;100242.53;5043913;28;20388;-56
2023/11/26 01:47:04;;;;;;;;;;;;;;;0.37;79.25;100249.19;5046334;28;19944;-55
2023/11/26 01:49:32;;;;;;;;;;;;;;;0.34;78.87;100248.41;5029470;28;19964;-54
2023/11/26 01:52:02;;;;;;;;;;;;;;;0.18;79.19;100240.13;5046551;28;19960;-55
2023/11/26 01:54:30;;;;;;;;;;;;;;;0.24;78.69;100245.19;5042687;28;19980;-57
2023/11/26 01:56:57;;;;;;;;;;;;;;;0.26;78.68;100240.81;5033222;28;20003;-56
2023/11/26 01:59:25;;;;;;;;;;;;;;;0.34;78.89;100248.41;5046809;28;19991;-51
2023/11/26 02:01:53;;;;;;;;;;;;;;;0.40;78.86;100253.44;5046022;28;20011;-55
2023/11/26 02:04:20;;;;;;;;;;;;;;;0.46;78.30;100258.47;5043110;28;20023;-55
2023/11/26 02:06:47;;;;;;;;;;;;;;;0.42;78.22;100254.25;5049675;28;20007;-55
2023/11/26 02:09:16;;;;;;;;;;;;;;;0.46;78.40;100253.31;5050182;28;20031;-55
2023/11/26 02:11:44;;;;;;;;;;;;;;;0.33;77.73;100255.31;5040997;28;19971;-54
2023/11/26 02:14:11;;;;;;;;;;;;;;;0.36;77.66;100259.56;5039261;28;20005;-56
2023/11/26 02:16:38;;;;;;;;;;;;;;;0.38;77.55;100258.66;5046234;28;20400;-58
2023/11/26 02:19:18;;;;;;;;;;;;;;;0.35;77.53;100255.28;5047927;28;19987;-53
2023/11/26 02:21:45;;;;;;;;;;;;;;;0.15;76.43;100255.75;5050813;28;20019;-56
2023/11/26 02:24:14;;;;;;;;;;;;;;;0.23;78.18;100261.59;5057832;28;20008;-58
2023/11/26 02:26:41;;;;;;;;;;;;;;;0.28;78.55;100258.91;5043345;28;20031;-54
2023/11/26 02:29:08;;;;;;;;;;;;;;;0.26;78.16;100258.94;5046193;28;19924;-56
2023/11/26 02:31:35;;;;;;;;;;;;;;;0.19;78.43;100260.81;5049454;28;19979;-56
2023/11/26 02:34:02;;;;;;;;;;;;;;;0.31;78.89;100274.34;5049220;28;19983;-53
2023/11/26 02:36:29;;;;;;;;;;;;;;;0.29;77.91;100279.56;5047596;28;20357;-54
2023/11/26 02:38:56;;;;;;;;;;;;;;;0.26;78.65;100284.81;5048106;28;19987;-55
2023/11/26 02:41:24;;;;;;;;;;;;;;;0.24;78.38;100284.84;5048038;28;20012;-55
2023/11/26 02:43:52;;;;;;;;;;;;;;;0.12;78.77;100285.13;5043111;28;19970;-54
2023/11/26 02:46:19;;;;;;;;;;;;;;;0.24;79.41;100286.59;5051465;28;20028;-53
2023/11/26 02:48:47;;;;;;;;;;;;;;;0.33;78.96;100285.53;5047127;28;20355;-58
2023/11/26 02:51:14;;;;;;;;;;;;;;;0.28;79.14;100287.38;5047481;28;19925;-54
2023/11/26 02:53:41;;;;;;;;;;;;;;;0.18;79.60;100292.78;5047598;28;19969;-57
2023/11/26 02:56:09;;;;;;;;;;;;;;;-0.01;79.90;100292.28;5052235;28;20004;-58
2023/11/26 02:58:36;;;;;;;;;;;;;;;-0.09;80.78;100291.63;5046050;28;20039;-58
2023/11/26 03:01:04;;;;;;;;;;;;;;;0.12;80.58;100298.06;5048837;28;20007;-57
2023/11/26 03:03:31;;;;;;;;;;;;;;;0.22;80.76;100298.72;5055208;28;19995;-58
2023/11/26 03:05:58;;;;;;;;;;;;;;;0.24;80.35;100294.38;5048312;28;20007;-57
2023/11/26 03:08:38;;;;;;;;;;;;;;;0.18;80.47;100299.66;5052203;28;19925;-55
2023/11/26 03:13:51;;;;;;;;;;;;;;;0.23;81.27;100305.63;5046712;28;20286;-55
2023/11/26 03:16:18;;;;;;;;;;;;;;;0.27;80.62;100311.56;5052424;28;20286;-58
2023/11/26 03:18:46;;;;;;;;;;;;;;;0.24;80.99;100302.97;5054079;28;20027;-55
2023/11/26 03:21:15;;;;;;;;;;;;;;;0.21;80.54;100307.38;5050770;28;19956;-57
2023/11/26 03:23:43;;;;;;;;;;;;;;;0.22;81.09;100304.72;5047439;28;20019;-56
2023/11/26 03:26:10;;;;;;;;;;;;;;;0.18;81.22;100304.84;5055492;28;20029;-57
2023/11/26 03:28:37;;;;;;;;;;;;;;;0.21;81.11;100307.38;5048026;28;19968;-55
2023/11/26 03:31:04;;;;;;;;;;;;;;;0.20;80.70;100305.66;5049653;28;19924;-57
2023/11/26 03:33:32;;;;;;;;;;;;;;;0.21;80.69;100309.94;5050575;28;20597;-55
2023/11/26 03:35:59;;;;;;;;;;;;;;;0.21;80.71;100313.38;5042509;28;19992;-54
2023/11/26 03:38:26;;;;;;;;;;;;;;;0.12;80.98;100312.75;5045056;28;20466;-54
2023/11/26 03:40:53;;;;;;;;;;;;;;;0.16;81.34;100310.06;5048450;28;19947;-55
2023/11/26 03:43:20;;;;;;;;;;;;;;;0.27;81.90;100309.84;5050993;28;19983;-54
2023/11/26 03:45:47;;;;;;;;;;;;;;;0.28;81.22;100305.50;5050224;28;19963;-56
2023/11/26 03:48:14;;;;;;;;;;;;;;;0.13;81.62;100310.09;5048341;28;19960;-55
2023/11/26 03:50:42;;;;;;;;;;;;;;;0.16;81.61;100304.88;5043799;28;20015;-56
2023/11/26 03:53:10;;;;;;;;;;;;;;;0.23;82.09;100310.78;5053780;28;19996;-56
2023/11/26 03:55:36;;;;;;;;;;;;;;;0.26;81.50;100313.28;5052137;28;19933;-58
2023/11/26 03:58:03;;;;;;;;;;;;;;;0.13;81.74;100309.25;5056553;28;19960;-56
2023/11/26 04:00:30;;;;;;;;;;;;;;;0.15;81.77;100320.44;5051691;28;19982;-55
2023/11/26 04:02:58;;;;;;;;;;;;;;;0.14;81.70;100317.00;5050048;28;20004;-52
2023/11/26 04:05:25;;;;;;;;;;;;;;;0.24;82.32;100320.25;5045126;28;19928;-53
2023/11/26 04:07:52;;;;;;;;;;;;;;;0.31;81.72;100328.72;5050641;28;19979;-55
2023/11/26 04:10:19;;;;;;;;;;;;;;;0.31;81.28;100328.72;5053259;28;20314;-55
2023/11/26 04:12:58;;;;;;;;;;;;;;;0.36;81.98;100325.19;5047122;28;19975;-56
2023/11/26 04:15:26;;;;;;;;;;;;;;;0.39;82.12;100327.69;5046061;28;20003;-57
2023/11/26 04:17:53;;;;;;;;;;;;;;;0.36;81.02;100326.88;5050765;28;19966;-58
2023/11/26 04:20:21;;;;;;;;;;;;;;;0.39;81.82;100337.19;5049091;28;20035;-56
2023/11/26 04:22:48;;;;;;;;;;;;;;;0.40;81.44;100342.31;5044524;28;20018;-57
2023/11/26 04:25:15;;;;;;;;;;;;;;;0.35;81.48;100346.75;5052520;28;20360;-58
2023/11/26 04:27:42;;;;;;;;;;;;;;;0.37;82.00;100346.75;5048065;28;20004;-56
2023/11/26 04:30:10;;;;;;;;;;;;;;;0.43;82.58;100349.19;5041517;28;19935;-54
2023/11/26 04:32:37;;;;;;;;;;;;;;;0.37;81.23;100345.00;5046845;28;19925;-58
2023/11/26 04:35:05;;;;;;;;;;;;;;;0.39;81.32;100347.53;5044494;28;19957;-58
2023/11/26 04:37:34;;;;;;;;;;;;;;;0.42;82.27;100350.94;5052354;28;19964;-57
2023/11/26 04:40:01;;;;;;;;;;;;;;;0.47;82.04;100358.59;5036988;28;20016;-56
2023/11/26 04:42:28;;;;;;;;;;;;;;;0.46;82.33;100352.56;5051417;28;20047;-56
2023/11/26 04:44:55;;;;;;;;;;;;;;;0.39;83.29;100361.34;5072891;28;19925;-54
2023/11/26 04:47:22;;;;;;;;;;;;;;;0.45;83.28;100355.16;5050130;28;20010;-55
2023/11/26 04:49:49;;;;;;;;;;;;;;;0.39;82.99;100361.34;5051175;28;20007;-57
2023/11/26 04:52:16;;;;;;;;;;;;;;;0.37;82.83;100351.91;5052701;28;20020;-55
2023/11/26 04:54:43;;;;;;;;;;;;;;;0.35;83.76;100362.28;5045824;28;19959;-58
2023/11/26 04:57:10;;;;;;;;;;;;;;;0.43;83.19;100365.56;5052338;28;19940;-56
2023/11/26 04:59:37;;;;;;;;;;;;;;;0.37;83.56;100364.88;5054514;28;19960;-58
2023/11/26 05:02:06;;;;;;;;;;;;;;;0.40;84.21;100363.03;5046680;28;19963;-53
2023/11/26 05:04:33;;;;;;;;;;;;;;;0.31;85.42;100363.22;5049449;28;19924;-57
2023/11/26 05:07:01;;;;;;;;;;;;;;;0.36;85.11;100368.31;5042020;28;20003;-54
2023/11/26 05:09:31;;;;;;;;;;;;;;;0.34;84.80;100367.50;5051457;28;19971;-57
2023/11/26 05:12:05;;;;;;;;;;;;;;;0.24;85.68;100372.88;5051061;28;19968;-58
2023/11/26 05:14:33;;;;;;;;;;;;;;;0.31;85.92;100376.19;5044500;28;20356;-55
2023/11/26 05:17:00;;;;;;;;;;;;;;;0.37;85.88;100373.47;5046209;28;19931;-56
2023/11/26 05:19:27;;;;;;;;;;;;;;;0.17;86.84;100384.22;5048037;28;19964;-56
2023/11/26 05:21:54;;;;;;;;;;;;;;;0.08;88.01;100378.38;5043080;28;19941;-52
2023/11/26 05:24:21;;;;;;;;;;;;;;;0.16;88.35;100374.78;5048237;28;20382;-56
2023/11/26 05:26:48;;;;;;;;;;;;;;;0.13;88.77;100377.41;5047491;28;19925;-56
2023/11/26 05:29:15;;;;;;;;;;;;;;;0.19;88.96;100386.81;5051007;28;20530;-56
2023/11/26 05:31:42;;;;;;;;;;;;;;;0.20;90.01;100388.50;5046002;28;19960;-59
2023/11/26 05:34:09;;;;;;;;;;;;;;;0.17;91.06;100383.38;5048817;28;20371;-57
2023/11/26 05:36:36;;;;;;;;;;;;;;;0.09;91.73;100380.09;5045116;28;20372;-56
2023/11/26 05:39:03;;;;;;;;;;;;;;;0.11;92.32;100379.19;5050713;28;19998;-54
2023/11/26 05:41:32;;;;;;;;;;;;;;;0.13;92.59;100377.41;5049568;28;20043;-54
2023/11/26 05:43:59;;;;;;;;;;;;;;;0.15;93.14;100387.75;5046068;28;19933;-57
2023/11/26 05:46:26;;;;;;;;;;;;;;;0.24;92.93;100382.38;5052006;28;20016;-55
2023/11/26 05:48:53;;;;;;;;;;;;;;;0.18;92.85;100385.06;5050561;28;19967;-56
2023/11/26 05:51:21;;;;;;;;;;;;;;;0.19;93.21;100390.25;5048616;28;20051;-58
2023/11/26 05:53:48;;;;;;;;;;;;;;;0.26;93.60;100396.13;5043237;28;20027;-57
2023/11/26 05:56:15;;;;;;;;;;;;;;;0.17;93.58;100396.31;5049859;28;19952;-56
2023/11/26 05:58:42;;;;;;;;;;;;;;;0.19;93.48;100408.38;5052487;28;19966;-57
2023/11/26 06:01:10;;;;;;;;;;;;;;;0.25;93.73;100407.38;5052382;28;20118;-58
2023/11/26 06:03:37;;;;;;;;;;;;;;;0.07;93.72;100407.75;5052389;28;20474;-57
2023/11/26 06:06:05;;;;;;;;;;;;;;;0.02;94.13;100402.66;5050379;28;20406;-53
2023/11/26 06:08:32;;;;;;;;;;;;;;;0.02;94.23;100399.22;5053800;28;20382;-57
2023/11/26 06:10:59;;;;;;;;;;;;;;;-0.06;95.06;100405.38;5053456;28;20425;-56
2023/11/26 06:13:27;;;;;;;;;;;;;;;-0.20;96.91;100404.78;5050744;28;20023;-58
2023/11/26 06:15:54;;;;;;;;;;;;;;;-0.16;97.12;100406.44;5045104;28;19931;-58
2023/11/26 06:18:21;;;;;;;;;;;;;;;-0.11;97.17;100406.38;5045535;28;20423;-56
2023/11/26 06:20:48;;;;;;;;;;;;;;;-0.10;98.08;100414.09;5052462;28;20387;-56
2023/11/26 06:23:15;;;;;;;;;;;;;;;-0.01;97.74;100423.41;5058051;28;20309;-55
2023/11/26 06:25:43;;;;;;;;;;;;;;;-0.02;98.50;100421.72;5045485;28;19932;-56
2023/11/26 06:28:10;;;;;;;;;;;;;;;0.02;99.85;100425.09;5054064;28;19925;-51
2023/11/26 06:30:37;;;;;;;;;;;;;;;0.05;99.46;100428.50;5043298;28;20620;-53
2023/11/26 06:33:05;;;;;;;;;;;;;;;-0.02;100.00;100424.31;5043817;28;19937;-53
2023/11/26 06:35:33;;;;;;;;;;;;;;;0.04;100.00;100429.34;5043841;28;19925;-57
2023/11/26 06:38:01;;;;;;;;;;;;;;;0.11;100.00;100422.34;5039142;28;19933;-57
2023/11/26 06:40:28;;;;;;;;;;;;;;;0.05;100.00;100423.31;5050901;28;19932;-53
2023/11/26 06:42:55;;;;;;;;;;;;;;;-0.01;100.00;100421.69;5046809;28;20401;-54
2023/11/26 06:45:23;;;;;;;;;;;;;;;-0.17;100.00;100425.44;5051057;28;19925;-57
2023/11/26 06:47:50;;;;;;;;;;;;;;;-0.10;100.00;100431.34;5042414;28;19928;-55
2023/11/26 06:50:17;;;;;;;;;;;;;;;-0.16;100.00;100436.66;5047933;28;19928;-53
2023/11/26 06:52:44;;;;;;;;;;;;;;;-0.27;100.00;100435.13;5046248;28;19931;-52
2023/11/26 06:55:12;;;;;;;;;;;;;;;-0.24;100.00;100435.91;5047830;28;20290;-52
2023/11/26 06:57:39;;;;;;;;;;;;;;;-0.26;100.00;100439.41;5053485;28;19944;-52
2023/11/26 07:00:07;;;;;;;;;;;;;;;-0.28;100.00;100437.69;5043564;28;19928;-51
2023/11/26 07:02:35;;;;;;;;;;;;;;;-0.33;100.00;100445.53;5043304;28;19929;-56
2023/11/26 07:05:03;;;;;;;;;;;;;;;-0.38;100.00;100441.34;5042954;28;19925;-55
2023/11/26 07:07:31;;;;;;;;;;;;;;;-0.38;100.00;100446.50;5053637;28;20401;-54
2023/11/26 07:09:58;;;;;;;;;;;;;;;-0.32;100.00;100449.84;5043021;28;19932;-53
2023/11/26 07:12:29;;;;;;;;;;;;;;;-0.57;100.00;100446.81;5053768;28;19924;-56
2023/11/26 07:14:56;;;;;;;;;;;;;;;-0.45;100.00;100461.28;5045152;28;20514;-54
2023/11/26 07:17:25;;;;;;;;;;;;;;;-0.44;100.00;100457.81;5047384;28;19930;-56
2023/11/26 07:20:16;;;;;;;;;;;;;;;-0.41;100.00;100460.34;5042807;28;21077;-55
2023/11/26 07:23:04;;;;;;;;;;;;;;;-0.53;100.00;100464.00;5046219;28;19925;-55
2023/11/26 07:25:51;;;;;;;;;;;;;;;-0.53;100.00;100463.16;5045181;28;20257;-57
2023/11/26 07:28:39;;;;;;;;;;;;;;;-0.52;100.00;100462.25;5045061;28;20410;-57
2023/11/26 07:31:27;;;;;;;;;;;;;;;-0.56;100.00;100474.38;5051342;28;19932;-58
2023/11/26 07:34:14;;;;;;;;;;;;;;;-0.66;100.00;100480.56;5047413;28;19925;-57
2023/11/26 07:37:01;;;;;;;;;;;;;;;-0.49;100.00;100485.50;5044737;28;19939;-57
2023/11/26 07:39:51;;;;;;;;;;;;;;;-0.51;100.00;100475.16;5057544;28;19979;-56
2023/11/26 07:42:40;;;;;;;;;;;;;;;-0.59;100.00;100481.31;5053822;28;19928;-53
2023/11/26 07:45:08;;;;;;;;;;;;;;;-0.53;100.00;100482.09;5049900;28;19933;-57
2023/11/26 07:47:35;;;;;;;;;;;;;;;-0.44;100.00;100482.81;5054842;28;19925;-56
2023/11/26 07:50:02;;;;;;;;;;;;;;;-0.52;100.00;100480.34;5051251;28;19935;-57
2023/11/26 07:52:30;;;;;;;;;;;;;;;-0.62;100.00;100482.25;5055955;28;20015;-59
2023/11/26 07:54:57;;;;;;;;;;;;;;;-0.48;100.00;100491.50;5047975;28;20326;-54
2023/11/26 07:57:24;;;;;;;;;;;;;;;-0.44;100.00;100488.00;5087538;22;19931;-55
2023/11/26 07:59:51;;;;;;;;;;;;;;;-0.29;100.00;100483.41;5080887;28;19924;-59
2023/11/26 08:02:20;;;;;;;;;;;;;;;-0.20;100.00;100484.16;5078603;28;19925;-59
2023/11/26 08:04:48;;;;;;;;;;;;;;;-0.23;100.00;100487.63;5074924;28;19930;-57
2023/11/26 08:07:15;;;;;;;;;;;;;;;-0.11;100.00;100492.59;5074479;28;19932;-59
2023/11/26 08:09:42;;;;;;;;;;;;;;;-0.33;100.00;100489.50;5075852;28;19934;-56
2023/11/26 08:12:13;;;;;;;;;;;;;;;-0.25;100.00;100489.41;5073805;28;20146;-60
2023/11/26 08:14:41;;;;;;;;;;;;;;;-0.37;100.00;100479.25;5075176;28;19924;-59
2023/11/26 08:17:09;;;;;;;;;;;;;;;-0.09;100.00;100479.63;5067903;28;20381;-59
2023/11/26 08:19:38;;;;;;;;;;;;;;;0.06;99.91;100479.38;5081234;28;20404;-57
2023/11/26 08:22:06;;;;;;;;;;;;;;;0.01;99.31;100485.50;5067232;28;19931;-58
2023/11/26 08:24:36;;;;;;;;;;;;;;;0.28;97.70;100484.16;5074534;28;19985;-58
2023/11/26 08:27:03;;;;;;;;;;;;;;;0.31;96.46;100481.47;5076660;28;19924;-57
2023/11/26 08:29:30;;;;;;;;;;;;;;;0.54;95.96;100479.31;5072497;28;19924;-59
2023/11/26 08:31:58;;;;;;;;;;;;;;;0.75;94.48;100484.03;5075077;28;19928;-57
2023/11/26 08:34:26;;;;;;;;;;;;;;;0.82;93.04;100483.94;5068582;28;19924;-58
2023/11/26 08:36:53;;;;;;;;;;;;;;;0.83;91.41;100488.22;5070302;28;19925;-59
2023/11/26 08:39:27;;;;;;;;;;;;;;;1.00;91.14;100488.72;5071368;28;19923;-58
2023/11/26 08:41:54;;;;;;;;;;;;;;;0.95;89.18;100503.53;5069781;28;19931;-57
2023/11/26 08:44:22;;;;;;;;;;;;;;;1.11;88.75;100501.44;5072532;28;19931;-59
2023/11/26 08:46:49;;;;;;;;;;;;;;;1.18;87.46;100503.88;5072018;28;19931;-59
2023/11/26 08:49:20;;;;;;;;;;;;;;;1.22;87.25;100502.91;5065565;28;19925;-60
2023/11/26 08:51:48;;;;;;;;;;;;;;;1.05;85.83;100514.53;5078533;28;19930;-58
2023/11/26 08:54:16;;;;;;;;;;;;;;;1.03;86.62;100514.56;5071249;28;20106;-57
2023/11/26 08:56:43;;;;;;;;;;;;;;;1.25;85.42;100520.13;5074850;28;19924;-60
2023/11/26 08:59:10;;;;;;;;;;;;;;;1.11;84.04;100523.03;5064396;28;19931;-59
2023/11/26 09:01:37;;;;;;;;;;;;;;;0.93;85.33;100526.84;5069370;28;19924;-60
2023/11/26 09:04:05;;;;;;;;;;;;;;;1.34;84.79;100527.69;5092662;28;19947;-58
2023/11/26 09:06:34;;;;;;;;;;;;;;;1.56;83.78;100525.47;5078044;28;21222;-59
2023/11/26 09:09:01;;;;;;;;;;;;;;;1.47;81.96;100529.13;5074192;28;20606;-55
2023/11/26 09:11:29;;;;;;;;;;;;;;;1.62;81.81;100521.88;5074543;28;19932;-61
2023/11/26 09:13:58;;;;;;;;;;;;;;;1.43;81.42;100530.06;5068459;28;19925;-61
2023/11/26 09:16:25;;;;;;;;;;;;;;;1.38;81.10;100529.34;5071636;28;19931;-52
2023/11/26 09:18:52;;;;;;;;;;;;;;;1.39;81.45;100531.03;5080760;28;19935;-57
2023/11/26 09:21:20;;;;;;;;;;;;;;;1.64;79.96;100526.13;5069980;28;19933;-56
2023/11/26 09:23:48;;;;;;;;;;;;;;;1.76;78.62;100525.84;5077817;28;19925;-56
2023/11/26 09:26:15;;;;;;;;;;;;;;;1.97;77.80;100528.78;5082428;28;19924;-60
2023/11/26 09:28:42;;;;;;;;;;;;;;;1.80;76.78;100530.94;5072633;28;20301;-55
2023/11/26 09:31:13;;;;;;;;;;;;;;;1.83;74.97;100531.72;5077592;28;19925;-58
2023/11/26 09:33:40;;;;;;;;;;;;;;;2.00;76.02;100526.97;5074437;28;19924;-54
2023/11/26 09:36:07;;;;;;;;;;;;;;;2.17;74.72;100528.31;5080706;28;19924;-57
2023/11/26 09:38:37;;;;;;;;;;;;;;;1.98;74.98;100518.38;5081503;28;19930;-58
2023/11/26 09:41:04;;;;;;;;;;;;;;;2.25;74.93;100523.72;5075979;28;19931;-53
2023/11/26 09:43:51;;;;;;;;;;;;;;;2.53;74.94;100519.53;5066224;28;19924;-58
2023/11/26 09:46:38;;;;;;;;;;;;;;;2.64;72.69;100521.81;5073649;28;19928;-59
2023/11/26 09:49:25;;;;;;;;;;;;;;;2.25;73.05;100527.22;5081402;28;19924;-58
2023/11/26 09:52:14;;;;;;;;;;;;;;;1.63;73.87;100532.22;5071317;28;19978;-56
2023/11/26 09:55:02;;;;;;;;;;;;;;;1.39;74.42;100531.03;5069577;28;19928;-57
2023/11/26 09:57:49;;;;;;;;;;;;;;;1.58;75.15;100541.00;5068876;28;19925;-58
2023/11/26 10:00:17;;;;;;;;;;;;;;;1.64;75.08;100539.13;5059839;28;19947;-57
2023/11/26 10:02:44;;;;;;;;;;;;;;;1.85;74.40;100532.56;5069902;28;19934;-57
2023/11/26 10:05:24;;;;;;;;;;;;;;;2.00;73.94;100519.19;5077406;28;19954;-60
2023/11/26 10:07:52;;;;;;;;;;;;;;;2.11;73.72;100523.25;5074199;28;19933;-60
2023/11/26 10:10:20;;;;;;;;;;;;;;;2.16;72.97;100529.16;5082540;28;19938;-56
2023/11/26 10:12:53;;;;;;;;;;;;;;;2.34;72.95;100533.88;5091390;28;19959;-57
2023/11/26 10:15:21;;;;;;;;;;;;;;;2.08;71.55;100526.78;5095482;28;19968;-59
2023/11/26 10:18:21;;;;;;;;;;;;;;;2.12;72.20;100538.81;5087264;28;19984;-59
2023/11/26 10:20:53;;;;;;;;;;;;;;;2.35;71.64;100530.41;5045607;28;19925;-62
2023/11/26 10:23:24;;;;;;;;;;;;;;;2.59;71.58;100535.84;5067710;28;19932;-58
2023/11/26 10:25:51;;;;;;;;;;;;;;;2.74;70.63;100536.25;5062916;28;19935;-62
2023/11/26 10:28:19;;;;;;;;;;;;;;;2.60;70.05;100537.53;5084775;28;19992;-61
2023/11/26 10:30:46;;;;;;;;;;;;;;;2.71;71.28;100535.50;5076650;28;20374;-58
2023/11/26 10:33:13;;;;;;;;;;;;;;;2.68;70.73;100528.63;5070448;28;19925;-61
2023/11/26 10:35:41;;;;;;;;;;;;;;;2.53;71.09;100537.72;5069893;28;19928;-61
2023/11/26 10:38:09;;;;;;;;;;;;;;;2.72;70.62;100538.06;5076384;28;19931;-61
2023/11/26 10:40:36;;;;;;;;;;;;;;;2.99;70.23;100541.59;5074305;28;19934;-59
2023/11/26 10:43:07;;;;;;;;;;;;;;;3.17;68.87;100535.03;5063131;28;19931;-61
2023/11/26 10:45:34;;;;;;;;;;;;;;;3.01;67.70;100533.75;5070975;28;19924;-62
2023/11/26 10:48:09;;;;;;;;;;;;;;;3.04;68.17;100531.91;5063639;28;19924;-63
2023/11/26 10:50:41;;;;;;;;;;;;;;;2.97;67.60;100530.41;5064910;28;19924;-60
2023/11/26 10:53:18;;;;;;;;;;;;;;;2.93;67.93;100533.16;5066866;28;19929;-62
2023/11/26 10:55:46;;;;;;;;;;;;;;;2.97;66.23;100519.13;5070814;28;19929;-62
2023/11/26 10:58:22;;;;;;;;;;;;;;;3.12;65.89;100529.09;5069429;28;19935;-61
2023/11/26 11:00:50;;;;;;;;;;;;;;;3.19;65.26;100528.00;5063045;28;20318;-63
2023/11/26 11:03:17;;;;;;;;;;;;;;;3.56;65.48;100529.50;5077216;28;19925;-63
2023/11/26 11:05:47;;;;;;;;;;;;;;;4.14;62.78;100530.16;5077803;28;20305;-62
2023/11/26 11:08:15;;;;;;;;;;;;;;;4.13;62.65;100525.03;5070668;28;19932;-62
2023/11/26 11:10:57;;;;;;;;;;;;;;;3.88;61.50;100538.03;5075253;28;19931;-64
2023/11/26 11:13:25;;;;;;;;;;;;;;;3.11;64.62;100523.94;5068984;28;19924;-63
2023/11/26 11:15:52;;;;;;;;;;;;;;;3.41;65.76;100516.94;5073932;28;19928;-63
2023/11/26 11:18:25;;;;;;;;;;;;;;;3.43;64.88;100529.03;5068771;28;19938;-59
2023/11/26 11:21:05;;;;;;;;;;;;;;;3.37;62.58;100523.16;5067726;28;19925;-60
2023/11/26 11:23:33;;;;;;;;;;;;;;;3.63;62.75;100523.19;5072112;28;19943;-62
2023/11/26 11:26:00;;;;;;;;;;;;;;;3.46;62.20;100523.72;5074855;28;19924;-59
2023/11/26 11:28:37;;;;;;;;;;;;;;;3.23;63.82;100529.63;5075875;28;19955;-59
2023/11/26 11:31:06;;;;;;;;;;;;;;;3.67;61.84;100527.38;5083488;28;19946;-58
2023/11/26 11:33:34;;;;;;;;;;;;;;;3.74;61.67;100517.66;5068221;28;19947;-60
2023/11/26 11:36:03;;;;;;;;;;;;;;;4.30;60.70;100518.31;5074972;28;20429;-64
2023/11/26 11:38:34;;;;;;;;;;;;;;;5.43;57.47;100523.72;5077966;28;19924;-61
2023/11/26 11:41:13;;;;;;;;;;;;;;;4.74;57.79;100513.28;5067318;28;19943;-66
2023/11/26 11:43:41;;;;;;;;;;;;;;;5.28;58.41;100513.88;5057982;28;19935;-62
2023/11/26 11:46:30;;;;;;;;;;;;;;;7.46;54.77;100500.09;5069230;28;20291;-61
2023/11/26 11:48:59;;;;;;;;;;;;;;;8.43;50.88;100514.50;5073792;28;20242;-62
2023/11/26 11:51:31;;;;;;;;;;;;;;;9.39;50.87;100523.28;5067962;28;19930;-62
2023/11/26 11:54:10;;;;;;;;;;;;;;;8.25;48.27;100521.53;5076011;28;20297;-62
2023/11/26 11:56:37;;;;;;;;;;;;;;;7.74;50.90;100528.41;5077537;28;19924;-64
2023/11/26 11:59:05;;;;;;;;;;;;;;;7.19;51.93;100528.41;5085640;28;19928;-61
2023/11/26 12:01:33;;;;;;;;;;;;;;;6.60;51.89;100531.06;5071709;28;19930;-62
2023/11/26 12:04:01;;;;;;;;;;;;;;;5.28;53.15;100532.16;5069949;28;19936;-63
2023/11/26 12:06:32;;;;;;;;;;;;;;;4.80;55.03;100528.69;5069200;28;19942;-62
2023/11/26 12:09:00;;;;;;;;;;;;;;;4.48;56.45;100521.19;5071059;28;19928;-64
2023/11/26 12:11:27;;;;;;;;;;;;;;;4.18;57.47;100521.34;5069126;28;19938;-61
2023/11/26 12:13:55;;;;;;;;;;;;;;;3.91;58.67;100528.34;5063649;28;19973;-58
2023/11/26 12:16:22;;;;;;;;;;;;;;;3.68;59.13;100530.84;5071696;28;19943;-61
2023/11/26 12:18:55;;;;;;;;;;;;;;;3.01;60.73;100536.34;5074228;28;19932;-62
2023/11/26 12:21:23;;;;;;;;;;;;;;;3.20;60.88;100531.47;5075262;28;19933;-63
2023/11/26 12:23:50;;;;;;;;;;;;;;;4.68;60.16;100513.50;5077635;28;19925;-62
2023/11/26 12:26:17;;;;;;;;;;;;;;;5.92;57.34;100506.09;5068390;28;20398;-61
2023/11/26 12:28:45;;;;;;;;;;;;;;;5.73;53.94;100518.19;5072710;28;19948;-63
2023/11/26 12:31:13;;;;;;;;;;;;;;;6.91;54.64;100505.28;5058424;28;19924;-62
2023/11/26 12:33:44;;;;;;;;;;;;;;;9.45;51.25;100492.34;5064433;28;20131;-64
2023/11/26 12:36:12;;;;;;;;;;;;;;;12.84;44.92;100494.59;5065815;28;19939;-62
2023/11/26 12:38:40;;;;;;;;;;;;;;;15.69;40.06;100494.91;5071701;28;19925;-62
2023/11/26 12:41:07;;;;;;;;;;;;;;;18.29;34.69;100494.34;5072120;28;20920;-62
2023/11/26 12:43:35;;;;;;;;;;;;;;;19.70;31.14;100494.97;5072253;28;20271;-62
2023/11/26 12:46:09;;;;;;;;;;;;;;;19.38;27.22;100500.78;5077590;28;19946;-59
2023/11/26 12:48:38;;;;;;;;;;;;;;;18.21;29.57;100492.38;5081292;28;19924;-59
2023/11/26 12:51:06;;;;;;;;;;;;;;;16.23;30.15;100497.56;5071776;28;20357;-64
2023/11/26 12:53:34;;;;;;;;;;;;;;;14.71;30.95;100498.41;5072253;28;19925;-61
2023/11/26 12:56:03;;;;;;;;;;;;;;;14.11;33.23;100498.53;5071188;28;19925;-62